Rose Valley, Nevada
Current Conditions -  °F | °C
As of 6:53 PM on Friday 24 Oct 2014 (Local Time) from KELY Reporting Station
Clear Clear  
Wind Chill: 55°   Ceiling: Unl
Heat Index: 55°   Visibility: 10mi
Dew Point: 24°   Wind: 10mph
Humidity: 30%   Direction: 170°S
Pressure: 30.18"   Gusts: NA
Location:  38.2635°N, 114.484°W
Report Text: KELY 250153Z AUTO 17009KT 10SM CLR 13/M04 A3018 RMK AO2 SLP160 T01281044
Loading
Personal Weather Stations






























Interactive Weather Map
Tropical Storm Tracking
New forecast layout! Learn more

10-Day Weather Forecast

Advertisements
Track Severe Weather on mobile